createdAt,value
2019-02-26T00:00:45.003Z,15.53
2019-02-26T00:04:49.135Z,15.33
2019-02-26T00:08:56.057Z,15.07
2019-02-26T00:13:02.507Z,14.67
2019-02-26T00:17:10.550Z,14.17
2019-02-26T00:21:13.280Z,14.83
2019-02-26T00:25:19.882Z,14.33
2019-02-26T00:29:25.258Z,13.23
2019-02-26T00:33:29.934Z,13.33
2019-02-26T00:37:34.461Z,14.40
2019-02-26T00:41:40.284Z,13.90
2019-02-26T00:45:44.811Z,13.70
2019-02-26T00:49:51.011Z,18.33
2019-02-26T00:53:57.337Z,14.57
2019-02-26T00:58:03.266Z,16.93
2019-02-26T01:02:07.446Z,14.57
2019-02-26T01:06:11.741Z,14.83
2019-02-26T01:10:18.759Z,14.97
2019-02-26T01:14:24.555Z,13.43
2019-02-26T01:18:29.010Z,13.67
2019-02-26T01:22:35.255Z,12.90
2019-02-26T01:26:42.525Z,12.87
2019-02-26T01:30:45.574Z,12.70
2019-02-26T01:34:49.860Z,13.30
2019-02-26T01:38:54.142Z,13.90
2019-02-26T01:43:02.586Z,16.93
2019-02-26T01:47:04.742Z,16.23
2019-02-26T01:51:10.608Z,16.13
2019-02-26T01:55:16.149Z,17.07
2019-02-26T01:59:20.920Z,18.03
2019-02-26T02:03:26.124Z,16.23
2019-02-26T02:07:31.358Z,17.10
2019-02-26T02:11:36.229Z,17.10
2019-02-26T02:15:42.281Z,16.90
2019-02-26T02:19:47.602Z,16.57
2019-02-26T02:23:52.941Z,16.10
2019-02-26T02:27:59.356Z,16.67
2019-02-26T02:32:05.069Z,16.60
2019-02-26T02:36:11.525Z,17.47
2019-02-26T02:40:15.356Z,16.03
2019-02-26T02:44:20.597Z,15.90
2019-02-26T02:48:25.802Z,15.00
2019-02-26T02:52:32.295Z,13.93
2019-02-26T02:56:39.110Z,14.87
2019-02-26T03:00:42.138Z,14.63
2019-02-26T03:04:46.467Z,14.90
2019-02-26T03:08:51.516Z,16.13
2019-02-26T03:12:57.662Z,15.37
2019-02-26T03:17:02.637Z,16.10
2019-02-26T03:21:07.012Z,15.93
2019-02-26T03:25:14.288Z,17.03
2019-02-26T03:29:18.517Z,17.23
2019-02-26T03:33:22.986Z,16.73
2019-02-26T03:37:28.864Z,15.20
2019-02-26T03:41:33.322Z,15.60
2019-02-26T03:45:37.688Z,14.50
2019-02-26T03:49:42.377Z,14.17
2019-02-26T03:53:46.773Z,14.23
2019-02-26T03:57:54.375Z,15.20
2019-02-26T04:01:57.095Z,14.33
2019-02-26T04:06:03.124Z,15.27
2019-02-26T04:10:07.714Z,14.00
2019-02-26T04:14:12.608Z,13.63
2019-02-26T04:18:17.891Z,14.70
2019-02-26T04:22:39.123Z,13.80
2019-02-26T04:27:18.685Z,16.13
2019-02-26T04:31:35.915Z,15.00
2019-02-26T04:36:02.662Z,14.93
2019-02-26T04:40:43.937Z,15.40
2019-02-26T04:45:20.268Z,15.23
2019-02-26T04:49:27.050Z,15.27
2019-02-26T04:53:31.303Z,16.87
2019-02-26T04:57:39.464Z,16.33
2019-02-26T05:01:44.659Z,16.57
2019-02-26T05:05:51.264Z,17.70
2019-02-26T05:09:56.866Z,17.23
2019-02-26T05:14:00.823Z,17.13
2019-02-26T05:18:05.173Z,18.63
2019-02-26T05:22:09.513Z,18.13
2019-02-26T05:26:15.133Z,18.10
2019-02-26T05:30:22.324Z,19.43
2019-02-26T05:34:26.029Z,19.40
2019-02-26T05:38:32.471Z,19.47
2019-02-26T05:42:36.450Z,18.60
2019-02-26T05:46:47.512Z,18.43
2019-02-26T05:50:52.792Z,17.87
2019-02-26T05:54:57.062Z,17.97
2019-02-26T05:59:04.284Z,17.10
2019-02-26T06:03:09.699Z,18.73
2019-02-26T06:07:13.527Z,18.33
2019-02-26T06:11:18.011Z,18.90
2019-02-26T06:15:23.109Z,18.87
2019-02-26T06:19:44.947Z,17.67
2019-02-26T06:23:56.115Z,18.87
2019-02-26T06:28:04.807Z,19.50
2019-02-26T06:32:11.972Z,18.43
2019-02-26T06:36:17.940Z,20.37
2019-02-26T06:40:22.446Z,19.03
2019-02-26T06:44:26.993Z,19.03
2019-02-26T06:48:32.341Z,18.93
2019-02-26T06:52:56.617Z,18.17
2019-02-26T06:57:01.114Z,16.70
2019-02-26T07:01:07.175Z,18.17
2019-02-26T07:05:13.022Z,18.20
2019-02-26T07:09:18.212Z,18.07
2019-02-26T07:13:43.873Z,17.80
2019-02-26T07:18:10.703Z,17.13
2019-02-26T07:22:15.919Z,17.20
2019-02-26T07:26:20.816Z,20.23
2019-02-26T07:30:26.071Z,17.53
2019-02-26T07:34:30.626Z,17.10
2019-02-26T07:38:41.109Z,18.03
2019-02-26T07:42:41.932Z,16.80
2019-02-26T07:46:47.324Z,17.63
2019-02-26T07:50:51.752Z,18.27
2019-02-26T07:54:56.202Z,19.43
2019-02-26T07:59:03.817Z,19.13
2019-02-26T08:03:06.736Z,18.73
2019-02-26T08:07:11.116Z,18.83
2019-02-26T08:11:15.554Z,19.33
2019-02-26T08:15:20.077Z,19.00
2019-02-26T08:19:29.528Z,19.83
2019-02-26T08:23:30.562Z,18.43
2019-02-26T08:27:35.657Z,17.93
2019-02-26T08:31:44.618Z,17.33
2019-02-26T08:35:47.375Z,17.00
2019-02-26T08:39:51.870Z,22.33
2019-02-26T08:43:56.918Z,19.53
2019-02-26T08:48:02.486Z,19.20
2019-02-26T08:52:06.829Z,20.00
2019-02-26T08:56:11.347Z,18.50
2019-02-26T09:00:17.357Z,19.30
2019-02-26T09:04:23.751Z,18.43
2019-02-26T09:08:30.153Z,20.60
2019-02-26T09:12:33.945Z,19.33
2019-02-26T09:16:38.481Z,19.47
2019-02-26T09:20:42.747Z,19.63
2019-02-26T09:24:49.290Z,19.80
2019-02-26T09:28:55.422Z,18.67
2019-02-26T09:33:00.940Z,19.77
2019-02-26T09:37:07.245Z,20.10
2019-02-26T09:41:13.674Z,20.00
2019-02-26T09:45:20.402Z,21.53
2019-02-26T09:49:26.213Z,22.87
2019-02-26T09:53:30.631Z,23.90
2019-02-26T09:57:35.065Z,22.03
2019-02-26T10:01:40.749Z,22.10
2019-02-26T10:05:47.678Z,23.27
2019-02-26T10:09:51.718Z,21.73
2019-02-26T10:13:56.230Z,23.43
2019-02-26T10:18:01.923Z,23.67
2019-02-26T10:22:09.808Z,23.23
2019-02-26T10:26:12.757Z,23.00
2019-02-26T10:30:17.489Z,22.23
2019-02-26T10:34:25.614Z,24.23
2019-02-26T10:38:31.264Z,23.93
2019-02-26T10:42:39.748Z,23.83
2019-02-26T10:46:42.557Z,23.00
2019-02-26T10:50:49.209Z,23.67
2019-02-26T10:54:52.464Z,23.17
2019-02-26T10:58:58.770Z,25.17
2019-02-26T11:03:02.955Z,24.20
2019-02-26T11:07:11.006Z,24.73
2019-02-26T11:11:16.017Z,25.60
2019-02-26T11:15:21.521Z,24.73
2019-02-26T11:19:27.347Z,23.47
2019-02-26T11:23:33.958Z,24.77
2019-02-26T11:27:40.311Z,22.27
2019-02-26T11:31:44.692Z,23.83
2019-02-26T11:35:51.476Z,24.53
2019-02-26T11:39:57.588Z,23.60
2019-02-26T11:44:01.897Z,23.80
2019-02-26T11:48:08.687Z,23.73
2019-02-26T11:52:12.412Z,22.57
2019-02-26T11:56:17.687Z,21.33
2019-02-26T12:00:33.902Z,21.97
2019-02-26T12:04:36.062Z,19.27
2019-02-26T12:08:42.429Z,19.47
2019-02-26T12:12:48.505Z,18.00
2019-02-26T12:16:53.007Z,20.00
2019-02-26T12:20:57.354Z,19.73
2019-02-26T12:25:04.853Z,17.70
2019-02-26T12:29:07.900Z,20.60
2019-02-26T12:33:14.689Z,17.92
2019-02-26T12:37:18.580Z,17.27
2019-02-26T12:41:23.011Z,16.57
2019-02-26T12:45:28.447Z,16.02
2019-02-26T12:49:36.555Z,15.38
2019-02-26T12:57:52.892Z,15.00
2019-02-26T13:01:57.472Z,13.62
2019-02-26T13:06:05.168Z,14.53
2019-02-26T13:10:10.194Z,12.98
2019-02-26T13:14:14.553Z,12.82
2019-02-26T13:18:19.004Z,13.13
2019-02-26T13:22:23.371Z,13.48
2019-02-26T13:26:27.770Z,12.82
2019-02-26T13:30:32.116Z,14.77
2019-02-26T13:34:36.556Z,14.97
2019-02-26T13:38:45.047Z,14.67
2019-02-26T13:42:53.597Z,15.43
2019-02-26T13:46:53.073Z,13.30
2019-02-26T13:50:57.433Z,12.37
2019-02-26T13:55:01.890Z,13.80
2019-02-26T13:59:06.290Z,15.27
2019-02-26T14:03:10.710Z,13.83
2019-02-26T14:07:15.109Z,13.50
2019-02-26T14:11:19.530Z,14.67
2019-02-26T14:15:24.405Z,15.07
2019-02-26T14:19:29.046Z,15.13
2019-02-26T14:23:35.054Z,13.67
2019-02-26T14:27:39.501Z,11.57
2019-02-26T14:31:44.054Z,11.50
2019-02-26T14:35:48.471Z,11.63
2019-02-26T14:39:52.830Z,10.00
2019-02-26T14:43:57.314Z,10.50
2019-02-26T14:48:05.872Z,10.43
2019-02-26T14:52:10.182Z,9.97
2019-02-26T14:56:14.613Z,10.10
2019-02-26T15:00:23.988Z,10.87
2019-02-26T15:04:31.516Z,10.40
2019-02-26T15:08:35.940Z,9.07
2019-02-26T15:12:40.316Z,9.80
2019-02-26T15:16:45.268Z,9.80
2019-02-26T15:20:49.874Z,10.33
2019-02-26T15:24:54.353Z,11.00
2019-02-26T15:28:58.774Z,10.90
2019-02-26T15:33:10.870Z,10.43
2019-02-26T15:37:09.285Z,10.70
2019-02-26T15:41:13.910Z,10.40
2019-02-26T15:45:20.297Z,10.67
2019-02-26T15:49:25.033Z,11.23
2019-02-26T15:53:29.582Z,10.70
2019-02-26T15:57:33.941Z,11.90
2019-02-26T16:01:38.382Z,11.00
2019-02-26T16:05:42.813Z,10.90
2019-02-26T16:09:47.268Z,11.03
2019-02-26T16:13:51.681Z,10.73
2019-02-26T16:17:58.947Z,10.43
2019-02-26T16:22:02.327Z,10.70
2019-02-26T16:26:08.094Z,10.40
2019-02-26T16:30:16.305Z,10.43
2019-02-26T16:34:23.194Z,11.13
2019-02-26T16:38:27.604Z,11.07
2019-02-26T16:42:32.167Z,10.00
2019-02-26T16:46:36.654Z,10.40
2019-02-26T16:50:41.032Z,10.67
2019-02-26T16:54:45.590Z,10.20
2019-02-26T16:58:50.089Z,10.70
2019-02-26T17:02:54.579Z,11.00
2019-02-26T17:06:59.042Z,10.77
2019-02-26T17:11:03.452Z,11.17
2019-02-26T17:15:10.183Z,11.60
2019-02-26T17:19:15.468Z,11.57
2019-02-26T17:23:20.575Z,10.47
2019-02-26T17:27:24.945Z,11.23
2019-02-26T17:31:30.761Z,10.40
2019-02-26T17:35:35.589Z,11.83
2019-02-26T17:39:39.976Z,10.20
2019-02-26T17:43:44.247Z,11.73
2019-02-26T17:47:48.598Z,13.60
2019-02-26T17:51:52.924Z,13.20
2019-02-26T17:55:57.334Z,12.23
2019-02-26T18:00:01.726Z,11.23
2019-02-26T18:04:06.128Z,13.20
2019-02-26T18:08:10.538Z,13.10
2019-02-26T18:12:15.053Z,11.63
2019-02-26T18:16:19.482Z,11.67
2019-02-26T18:20:28.074Z,10.53
2019-02-26T18:24:30.074Z,10.60
2019-02-26T18:28:34.481Z,11.13
2019-02-26T18:32:38.915Z,11.00
2019-02-26T18:36:45.102Z,10.70
2019-02-26T18:40:49.331Z,10.67
2019-02-26T18:44:54.175Z,10.93
2019-02-26T18:48:58.962Z,11.23
2019-02-26T18:53:03.386Z,11.27
2019-02-26T18:57:11.281Z,11.60
2019-02-26T19:01:13.960Z,11.93
2019-02-26T19:05:20.413Z,11.73
2019-02-26T19:09:24.236Z,12.20
2019-02-26T19:13:28.684Z,11.40
2019-02-26T19:17:36.803Z,11.00
2019-02-26T19:21:41.335Z,13.67
2019-02-26T19:25:45.883Z,12.90
2019-02-26T19:29:50.433Z,12.33
2019-02-26T19:33:55.432Z,11.80
2019-02-26T19:38:00.342Z,10.37
2019-02-26T19:42:04.967Z,12.43
2019-02-26T19:46:09.429Z,13.07
2019-02-26T19:50:14.788Z,11.97
2019-02-26T19:54:19.414Z,12.83
2019-02-26T19:58:27.327Z,12.90
2019-02-26T20:02:32.259Z,11.80
2019-02-26T20:06:36.683Z,11.27
2019-02-26T20:10:47.848Z,11.77
2019-02-26T20:14:49.554Z,12.63
2019-02-26T20:18:54.078Z,13.07
2019-02-26T20:22:58.974Z,13.93
2019-02-26T20:27:03.631Z,13.07
2019-02-26T20:31:13.888Z,14.07
2019-02-26T20:35:16.017Z,13.90
2019-02-26T20:39:21.830Z,12.60
2019-02-26T20:43:26.203Z,13.17
2019-02-26T20:47:31.617Z,14.03
2019-02-26T20:51:36.665Z,14.20
2019-02-26T20:55:41.340Z,16.17
2019-02-26T20:59:46.025Z,15.20
2019-02-26T21:03:52.513Z,14.07
2019-02-26T21:07:58.769Z,15.90
2019-02-26T21:12:03.223Z,14.07
2019-02-26T21:16:07.804Z,14.30
2019-02-26T21:20:13.680Z,14.27
2019-02-26T21:24:18.140Z,13.20
2019-02-26T21:28:22.534Z,17.12
2019-02-26T21:32:30.176Z,14.17
2019-02-26T21:36:34.990Z,15.13
2019-02-26T21:40:39.391Z,14.93
2019-02-26T21:44:44.499Z,14.90
2019-02-26T21:48:49.506Z,15.50
2019-02-26T21:53:00.334Z,15.03
2019-02-26T21:57:05.416Z,16.27
2019-02-26T22:01:11.704Z,15.00
2019-02-26T22:05:16.497Z,16.50
2019-02-26T22:09:29.936Z,15.10
2019-02-26T22:13:34.000Z,14.70
2019-02-26T22:17:38.797Z,15.70
2019-02-26T22:21:52.178Z,15.77
2019-02-26T22:25:58.931Z,15.07
2019-02-26T22:30:03.299Z,15.43
2019-02-26T22:34:07.668Z,16.13
2019-02-26T22:38:15.072Z,15.17
2019-02-26T22:42:18.043Z,14.43
2019-02-26T22:46:25.281Z,16.00
2019-02-26T22:50:30.058Z,15.83
2019-02-26T22:54:35.022Z,15.87
2019-02-26T22:58:39.484Z,15.33
2019-02-26T23:02:43.725Z,14.63
2019-02-26T23:06:48.131Z,16.37
2019-02-26T23:10:57.180Z,17.13
2019-02-26T23:14:58.642Z,16.80
2019-02-26T23:19:03.834Z,17.17
2019-02-26T23:23:08.818Z,16.00
2019-02-26T23:27:15.121Z,16.13
2019-02-26T23:31:21.809Z,15.80
2019-02-26T23:35:26.213Z,15.53
2019-02-26T23:39:30.884Z,15.57
2019-02-26T23:43:35.230Z,15.57
2019-02-26T23:47:39.621Z,14.70
2019-02-26T23:51:44.036Z,15.27
2019-02-26T23:55:48.529Z,15.23
2019-02-26T23:59:52.872Z,13.20
